sensor_id;sensor_type;location;lat;lon;timestamp;temperature;humidity
42147;DHT22;27815;43.410;11.852;2022-10-16T02:16:32;15.00;77.80
42147;DHT22;27815;43.410;11.852;2022-10-16T02:34:21;15.00;77.60
42147;DHT22;27815;43.410;11.852;2022-10-16T02:39:44;14.90;77.90
42147;DHT22;27815;43.410;11.852;2022-10-16T02:44:40;14.90;78.30
42147;DHT22;27815;43.410;11.852;2022-10-16T02:53:48;14.90;77.70
42147;DHT22;27815;43.410;11.852;2022-10-16T02:57:55;14.80;77.50
42147;DHT22;27815;43.410;11.852;2022-10-16T03:01:59;14.70;77.40
42147;DHT22;27815;43.410;11.852;2022-10-16T03:06:11;14.60;77.60
42147;DHT22;27815;43.410;11.852;2022-10-16T03:10:14;14.60;77.80
42147;DHT22;27815;43.410;11.852;2022-10-16T03:14:20;14.50;77.60
42147;DHT22;27815;43.410;11.852;2022-10-16T03:18:27;14.50;77.60
42147;DHT22;27815;43.410;11.852;2022-10-16T03:22:30;14.40;77.60
42147;DHT22;27815;43.410;11.852;2022-10-16T03:26:36;14.50;77.70
42147;DHT22;27815;43.410;11.852;2022-10-16T03:30:39;14.50;77.80
42147;DHT22;27815;43.410;11.852;2022-10-16T03:34:45;14.50;77.80
42147;DHT22;27815;43.410;11.852;2022-10-16T03:38:48;14.50;77.80
42147;DHT22;27815;43.410;11.852;2022-10-16T03:42:53;14.40;77.70
42147;DHT22;27815;43.410;11.852;2022-10-16T03:47:00;14.40;77.70
42147;DHT22;27815;43.410;11.852;2022-10-16T03:51:05;14.40;77.50
42147;DHT22;27815;43.410;11.852;2022-10-16T03:55:10;14.40;77.30
42147;DHT22;27815;43.410;11.852;2022-10-16T03:59:19;14.30;77.20
42147;DHT22;27815;43.410;11.852;2022-10-16T04:03:48;14.20;77.30
42147;DHT22;27815;43.410;11.852;2022-10-16T04:07:52;14.20;77.40
42147;DHT22;27815;43.410;11.852;2022-10-16T04:11:59;14.10;77.40
42147;DHT22;27815;43.410;11.852;2022-10-16T04:16:03;14.10;77.60
42147;DHT22;27815;43.410;11.852;2022-10-16T04:20:09;14.00;77.70
42147;DHT22;27815;43.410;11.852;2022-10-16T04:24:14;14.00;77.80
42147;DHT22;27815;43.410;11.852;2022-10-16T04:28:18;14.10;77.90
42147;DHT22;27815;43.410;11.852;2022-10-16T04:32:22;14.10;77.90
42147;DHT22;27815;43.410;11.852;2022-10-16T04:43:09;14.20;78.00
42147;DHT22;27815;43.410;11.852;2022-10-16T04:47:19;14.10;78.00
42147;DHT22;27815;43.410;11.852;2022-10-16T04:51:49;14.10;78.00
42147;DHT22;27815;43.410;11.852;2022-10-16T04:56:26;14.10;77.70
42147;DHT22;27815;43.410;11.852;2022-10-16T05:12:46;13.90;77.90
42147;DHT22;27815;43.410;11.852;2022-10-16T05:23:40;13.80;78.00
42147;DHT22;27815;43.410;11.852;2022-10-16T05:27:46;13.60;78.00
42147;DHT22;27815;43.410;11.852;2022-10-16T05:38:13;13.60;77.40
42147;DHT22;27815;43.410;11.852;2022-10-16T05:49:08;13.50;77.70
42147;DHT22;27815;43.410;11.852;2022-10-16T05:53:19;13.50;78.00
42147;DHT22;27815;43.410;11.852;2022-10-16T05:57:28;13.60;78.00
42147;DHT22;27815;43.410;11.852;2022-10-16T06:01:59;13.60;77.80
42147;DHT22;27815;43.410;11.852;2022-10-16T06:12:20;13.70;78.00
42147;DHT22;27815;43.410;11.852;2022-10-16T06:16:26;13.80;77.90
42147;DHT22;27815;43.410;11.852;2022-10-16T06:25:25;13.80;77.40
42147;DHT22;27815;43.410;11.852;2022-10-16T06:29:34;13.90;78.00
42147;DHT22;27815;43.410;11.852;2022-10-16T06:34:04;14.00;78.50
42147;DHT22;27815;43.410;11.852;2022-10-16T06:45:24;14.30;78.40
42147;DHT22;27815;43.410;11.852;2022-10-16T06:49:30;14.80;78.20
42147;DHT22;27815;43.410;11.852;2022-10-16T06:53:45;15.00;78.10
42147;DHT22;27815;43.410;11.852;2022-10-16T06:58:09;15.30;78.50
42147;DHT22;27815;43.410;11.852;2022-10-16T07:02:39;15.50;78.10
42147;DHT22;27815;43.410;11.852;2022-10-16T07:06:45;15.60;77.70
42147;DHT22;27815;43.410;11.852;2022-10-16T07:11:16;15.60;78.00
42147;DHT22;27815;43.410;11.852;2022-10-16T07:15:49;15.60;77.70
42147;DHT22;27815;43.410;11.852;2022-10-16T07:25:21;15.70;77.80
42147;DHT22;27815;43.410;11.852;2022-10-16T07:35:14;15.90;77.90
42147;DHT22;27815;43.410;11.852;2022-10-16T07:39:17;16.00;77.90
42147;DHT22;27815;43.410;11.852;2022-10-16T07:43:53;16.10;78.00
42147;DHT22;27815;43.410;11.852;2022-10-16T07:55:26;16.50;77.60
42147;DHT22;27815;43.410;11.852;2022-10-16T07:59:31;16.80;77.60
42147;DHT22;27815;43.410;11.852;2022-10-16T08:03:36;16.90;77.70
42147;DHT22;27815;43.410;11.852;2022-10-16T08:08:05;16.90;77.70
42147;DHT22;27815;43.410;11.852;2022-10-16T08:12:42;17.00;77.50
42147;DHT22;27815;43.410;11.852;2022-10-16T08:16:48;17.20;77.70
42147;DHT22;27815;43.410;11.852;2022-10-16T08:20:57;17.50;77.50
42147;DHT22;27815;43.410;11.852;2022-10-16T08:25:03;17.80;77.50
42147;DHT22;27815;43.410;11.852;2022-10-16T08:29:14;18.20;76.90
42147;DHT22;27815;43.410;11.852;2022-10-16T08:33:18;18.40;76.30
42147;DHT22;27815;43.410;11.852;2022-10-16T08:37:24;18.50;76.20
42147;DHT22;27815;43.410;11.852;2022-10-16T08:46:49;18.70;75.50
42147;DHT22;27815;43.410;11.852;2022-10-16T08:51:37;18.90;75.20
42147;DHT22;27815;43.410;11.852;2022-10-16T08:55:52;19.00;75.30
42147;DHT22;27815;43.410;11.852;2022-10-16T09:00:00;19.10;74.80
42147;DHT22;27815;43.410;11.852;2022-10-16T09:12:53;19.90;73.70
42147;DHT22;27815;43.410;11.852;2022-10-16T09:22:15;20.30;72.80
42147;DHT22;27815;43.410;11.852;2022-10-16T09:26:20;20.40;72.30
42147;DHT22;27815;43.410;11.852;2022-10-16T09:30:28;20.50;72.10
42147;DHT22;27815;43.410;11.852;2022-10-16T09:34:32;20.50;71.50
42147;DHT22;27815;43.410;11.852;2022-10-16T09:38:40;20.80;71.50
42147;DHT22;27815;43.410;11.852;2022-10-16T09:42:44;21.00;71.00
42147;DHT22;27815;43.410;11.852;2022-10-16T09:47:14;21.20;70.50
42147;DHT22;27815;43.410;11.852;2022-10-16T09:51:36;21.50;69.90
42147;DHT22;27815;43.410;11.852;2022-10-16T09:55:52;22.00;69.10
42147;DHT22;27815;43.410;11.852;2022-10-16T09:59:58;22.50;67.70
42147;DHT22;27815;43.410;11.852;2022-10-16T10:04:02;22.60;67.20
42147;DHT22;27815;43.410;11.852;2022-10-16T10:08:06;22.70;66.40
42147;DHT22;27815;43.410;11.852;2022-10-16T10:12:27;22.80;66.20
42147;DHT22;27815;43.410;11.852;2022-10-16T10:16:34;22.90;67.40
42147;DHT22;27815;43.410;11.852;2022-10-16T10:20:41;23.30;65.10
42147;DHT22;27815;43.410;11.852;2022-10-16T10:38:00;24.20;61.60
42147;DHT22;27815;43.410;11.852;2022-10-16T10:42:45;24.20;61.70
42147;DHT22;27815;43.410;11.852;2022-10-16T10:58:06;24.30;60.30
42147;DHT22;27815;43.410;11.852;2022-10-16T11:07:04;24.60;59.60
42147;DHT22;27815;43.410;11.852;2022-10-16T11:11:14;25.00;58.10
42147;DHT22;27815;43.410;11.852;2022-10-16T11:15:24;25.20;57.80
42147;DHT22;27815;43.410;11.852;2022-10-16T11:20:12;25.50;55.70
42147;DHT22;27815;43.410;11.852;2022-10-16T11:24:42;25.60;56.20
42147;DHT22;27815;43.410;11.852;2022-10-16T11:29:29;25.40;56.20
42147;DHT22;27815;43.410;11.852;2022-10-16T11:33:57;25.40;55.50
42147;DHT22;27815;43.410;11.852;2022-10-16T11:38:26;25.70;55.40
42147;DHT22;27815;43.410;11.852;2022-10-16T11:42:46;25.70;54.10
42147;DHT22;27815;43.410;11.852;2022-10-16T11:47:06;25.50;53.20
42147;DHT22;27815;43.410;11.852;2022-10-16T11:51:48;25.50;53.70
42147;DHT22;27815;43.410;11.852;2022-10-16T11:56:13;25.50;51.90
42147;DHT22;27815;43.410;11.852;2022-10-16T12:00:29;25.50;53.10
42147;DHT22;27815;43.410;11.852;2022-10-16T12:05:02;25.60;51.80
42147;DHT22;27815;43.410;11.852;2022-10-16T12:09:02;26.00;50.30
42147;DHT22;27815;43.410;11.852;2022-10-16T12:13:37;26.20;49.00
42147;DHT22;27815;43.410;11.852;2022-10-16T12:17:41;26.20;49.90
42147;DHT22;27815;43.410;11.852;2022-10-16T12:21:45;26.10;49.30
42147;DHT22;27815;43.410;11.852;2022-10-16T12:25:55;26.10;49.40
42147;DHT22;27815;43.410;11.852;2022-10-16T12:30:06;26.10;48.50
42147;DHT22;27815;43.410;11.852;2022-10-16T12:34:41;26.00;49.40
42147;DHT22;27815;43.410;11.852;2022-10-16T13:25:04;25.50;48.60
42147;DHT22;27815;43.410;11.852;2022-10-16T13:29:32;25.70;47.90
42147;DHT22;27815;43.410;11.852;2022-10-16T13:33:41;25.70;48.00
42147;DHT22;27815;43.410;11.852;2022-10-16T13:38:21;25.80;47.50
42147;DHT22;27815;43.410;11.852;2022-10-16T13:43:25;25.70;47.50
42147;DHT22;27815;43.410;11.852;2022-10-16T13:47:29;25.70;47.40
42147;DHT22;27815;43.410;11.852;2022-10-16T13:51:33;25.70;47.50
42147;DHT22;27815;43.410;11.852;2022-10-16T13:55:36;25.50;47.80
42147;DHT22;27815;43.410;11.852;2022-10-16T13:59:40;25.40;47.90
42147;DHT22;27815;43.410;11.852;2022-10-16T14:03:47;25.30;48.40
42147;DHT22;27815;43.410;11.852;2022-10-16T14:07:56;25.30;47.70
42147;DHT22;27815;43.410;11.852;2022-10-16T14:12:07;25.10;48.60
42147;DHT22;27815;43.410;11.852;2022-10-16T14:16:22;25.10;49.90
42147;DHT22;27815;43.410;11.852;2022-10-16T14:20:32;25.10;49.60
42147;DHT22;27815;43.410;11.852;2022-10-16T14:24:52;25.00;49.50
42147;DHT22;27815;43.410;11.852;2022-10-16T14:29:29;24.90;50.90
42147;DHT22;27815;43.410;11.852;2022-10-16T14:33:35;24.80;51.50
42147;DHT22;27815;43.410;11.852;2022-10-16T14:37:39;24.70;51.50
42147;DHT22;27815;43.410;11.852;2022-10-16T14:41:46;24.60;52.50
42147;DHT22;27815;43.410;11.852;2022-10-16T14:45:56;24.50;53.10
42147;DHT22;27815;43.410;11.852;2022-10-16T14:50:02;24.50;53.20
42147;DHT22;27815;43.410;11.852;2022-10-16T14:54:05;24.30;54.50
42147;DHT22;27815;43.410;11.852;2022-10-16T15:02:34;24.20;54.80
42147;DHT22;27815;43.410;11.852;2022-10-16T15:06:37;24.10;55.20
42147;DHT22;27815;43.410;11.852;2022-10-16T15:10:43;24.00;56.20
42147;DHT22;27815;43.410;11.852;2022-10-16T15:14:46;24.00;57.00
42147;DHT22;27815;43.410;11.852;2022-10-16T15:18:49;23.90;57.20
42147;DHT22;27815;43.410;11.852;2022-10-16T15:22:52;23.90;57.00
42147;DHT22;27815;43.410;11.852;2022-10-16T15:26:55;23.80;55.90
42147;DHT22;27815;43.410;11.852;2022-10-16T15:30:58;23.70;57.30
42147;DHT22;27815;43.410;11.852;2022-10-16T15:35:02;23.60;58.30
42147;DHT22;27815;43.410;11.852;2022-10-16T15:39:12;23.40;58.30
42147;DHT22;27815;43.410;11.852;2022-10-16T15:43:16;23.30;58.20
42147;DHT22;27815;43.410;11.852;2022-10-16T15:47:19;23.10;58.20
42147;DHT22;27815;43.410;11.852;2022-10-16T15:51:29;23.00;58.40
42147;DHT22;27815;43.410;11.852;2022-10-16T15:56:06;22.80;58.90
42147;DHT22;27815;43.410;11.852;2022-10-16T16:00:19;22.60;58.70
42147;DHT22;27815;43.410;11.852;2022-10-16T16:04:31;22.40;59.30
42147;DHT22;27815;43.410;11.852;2022-10-16T16:08:45;22.20;59.50
42147;DHT22;27815;43.410;11.852;2022-10-16T16:12:49;22.00;59.50
42147;DHT22;27815;43.410;11.852;2022-10-16T16:17:01;21.90;59.60
42147;DHT22;27815;43.410;11.852;2022-10-16T16:21:19;21.70;59.60
42147;DHT22;27815;43.410;11.852;2022-10-16T16:25:23;21.60;59.80
42147;DHT22;27815;43.410;11.852;2022-10-16T16:29:40;21.50;60.00
42147;DHT22;27815;43.410;11.852;2022-10-16T16:33:43;21.40;60.40
42147;DHT22;27815;43.410;11.852;2022-10-16T16:37:48;21.20;60.40
42147;DHT22;27815;43.410;11.852;2022-10-16T16:41:51;21.10;60.10
42147;DHT22;27815;43.410;11.852;2022-10-16T16:45:56;21.00;60.20
42147;DHT22;27815;43.410;11.852;2022-10-16T17:02:59;20.60;61.00
42147;DHT22;27815;43.410;11.852;2022-10-16T18:06:14;19.60;64.60
42147;DHT22;27815;43.410;11.852;2022-10-16T18:10:57;19.50;65.30
42147;DHT22;27815;43.410;11.852;2022-10-16T18:16:05;19.40;65.50
42147;DHT22;27815;43.410;11.852;2022-10-16T18:27:10;19.40;65.10
42147;DHT22;27815;43.410;11.852;2022-10-16T18:37:04;19.20;65.50
42147;DHT22;27815;43.410;11.852;2022-10-16T18:43:17;19.10;65.20
42147;DHT22;27815;43.410;11.852;2022-10-16T18:48:18;19.00;65.30
42147;DHT22;27815;43.410;11.852;2022-10-16T18:52:21;19.00;65.60
42147;DHT22;27815;43.410;11.852;2022-10-16T18:56:29;19.00;65.60
42147;DHT22;27815;43.410;11.852;2022-10-16T19:00:41;19.00;65.60
42147;DHT22;27815;43.410;11.852;2022-10-16T19:04:53;19.00;65.50
42147;DHT22;27815;43.410;11.852;2022-10-16T19:08:57;19.00;65.50
42147;DHT22;27815;43.410;11.852;2022-10-16T19:13:01;18.90;65.60
42147;DHT22;27815;43.410;11.852;2022-10-16T19:17:06;18.90;65.70
42147;DHT22;27815;43.410;11.852;2022-10-16T19:21:12;18.80;65.70
42147;DHT22;27815;43.410;11.852;2022-10-16T19:25:17;18.90;65.80
42147;DHT22;27815;43.410;11.852;2022-10-16T19:29:47;18.90;65.80
42147;DHT22;27815;43.410;11.852;2022-10-16T19:34:15;18.80;65.80
42147;DHT22;27815;43.410;11.852;2022-10-16T19:39:02;18.80;65.80
42147;DHT22;27815;43.410;11.852;2022-10-16T19:49:46;18.60;66.30
42147;DHT22;27815;43.410;11.852;2022-10-16T19:54:39;18.50;67.00
42147;DHT22;27815;43.410;11.852;2022-10-16T20:04:44;18.40;67.50
42147;DHT22;27815;43.410;11.852;2022-10-16T20:20:14;18.10;68.10
42147;DHT22;27815;43.410;11.852;2022-10-16T20:26:37;18.10;68.00
42147;DHT22;27815;43.410;11.852;2022-10-16T20:31:14;18.00;68.40
42147;DHT22;27815;43.410;11.852;2022-10-16T20:35:51;17.90;68.80
42147;DHT22;27815;43.410;11.852;2022-10-16T20:40:03;17.80;68.70
42147;DHT22;27815;43.410;11.852;2022-10-16T20:44:42;17.80;68.80
42147;DHT22;27815;43.410;11.852;2022-10-16T20:48:51;17.70;68.90
42147;DHT22;27815;43.410;11.852;2022-10-16T20:52:56;17.70;69.00
42147;DHT22;27815;43.410;11.852;2022-10-16T20:56:59;17.70;69.10
42147;DHT22;27815;43.410;11.852;2022-10-16T21:01:07;17.70;69.00
42147;DHT22;27815;43.410;11.852;2022-10-16T21:05:10;17.60;69.20
42147;DHT22;27815;43.410;11.852;2022-10-16T21:09:13;17.50;69.20
42147;DHT22;27815;43.410;11.852;2022-10-16T21:13:17;17.40;69.40
42147;DHT22;27815;43.410;11.852;2022-10-16T21:17:19;17.30;69.60
42147;DHT22;27815;43.410;11.852;2022-10-16T21:21:25;17.20;69.80
42147;DHT22;27815;43.410;11.852;2022-10-16T21:25:28;17.20;70.20
42147;DHT22;27815;43.410;11.852;2022-10-16T21:29:32;17.20;70.00
42147;DHT22;27815;43.410;11.852;2022-10-16T21:33:37;17.20;70.20
42147;DHT22;27815;43.410;11.852;2022-10-16T21:37:40;17.20;70.40
42147;DHT22;27815;43.410;11.852;2022-10-16T21:41:44;17.10;70.50
42147;DHT22;27815;43.410;11.852;2022-10-16T21:45:48;17.10;70.80
42147;DHT22;27815;43.410;11.852;2022-10-16T21:49:51;17.10;71.10
42147;DHT22;27815;43.410;11.852;2022-10-16T21:53:54;17.10;71.10
42147;DHT22;27815;43.410;11.852;2022-10-16T21:57:57;17.10;71.10
42147;DHT22;27815;43.410;11.852;2022-10-16T22:02:00;17.20;70.90
42147;DHT22;27815;43.410;11.852;2022-10-16T22:06:06;17.10;71.00
42147;DHT22;27815;43.410;11.852;2022-10-16T22:10:10;17.20;71.30
42147;DHT22;27815;43.410;11.852;2022-10-16T22:14:18;17.20;71.20
42147;DHT22;27815;43.410;11.852;2022-10-16T22:18:21;17.10;71.50
42147;DHT22;27815;43.410;11.852;2022-10-16T22:22:24;17.10;71.40
42147;DHT22;27815;43.410;11.852;2022-10-16T22:26:27;17.00;71.50
42147;DHT22;27815;43.410;11.852;2022-10-16T22:30:30;17.00;71.50
42147;DHT22;27815;43.410;11.852;2022-10-16T22:34:37;17.00;71.60
42147;DHT22;27815;43.410;11.852;2022-10-16T22:38:40;17.00;71.70
42147;DHT22;27815;43.410;11.852;2022-10-16T22:42:43;17.00;71.70
42147;DHT22;27815;43.410;11.852;2022-10-16T22:46:46;17.00;71.80
42147;DHT22;27815;43.410;11.852;2022-10-16T22:50:51;16.90;71.90
42147;DHT22;27815;43.410;11.852;2022-10-16T22:54:54;16.90;72.00
42147;DHT22;27815;43.410;11.852;2022-10-16T22:58:57;16.90;72.20
42147;DHT22;27815;43.410;11.852;2022-10-16T23:03:00;16.90;72.20
42147;DHT22;27815;43.410;11.852;2022-10-16T23:07:03;16.90;72.10
42147;DHT22;27815;43.410;11.852;2022-10-16T23:11:08;16.80;72.20
42147;DHT22;27815;43.410;11.852;2022-10-16T23:15:11;16.70;72.50
42147;DHT22;27815;43.410;11.852;2022-10-16T23:19:15;16.60;72.40
42147;DHT22;27815;43.410;11.852;2022-10-16T23:23:18;16.50;72.70
42147;DHT22;27815;43.410;11.852;2022-10-16T23:27:21;16.50;72.90
42147;DHT22;27815;43.410;11.852;2022-10-16T23:31:24;16.50;73.00
42147;DHT22;27815;43.410;11.852;2022-10-16T23:35:27;16.50;73.40
42147;DHT22;27815;43.410;11.852;2022-10-16T23:39:30;16.50;73.40
42147;DHT22;27815;43.410;11.852;2022-10-16T23:43:34;16.40;73.40
42147;DHT22;27815;43.410;11.852;2022-10-16T23:47:37;16.50;73.60
42147;DHT22;27815;43.410;11.852;2022-10-16T23:51:40;16.40;73.70
42147;DHT22;27815;43.410;11.852;2022-10-16T23:55:48;16.40;73.40
42147;DHT22;27815;43.410;11.852;2022-10-16T23:59:51;16.30;73.50
